createdAt,value
2023-02-22T00:01:37.222Z,2.67
2023-02-22T00:04:07.257Z,3.00
2023-02-22T00:06:35.005Z,3.22
2023-02-22T00:09:03.003Z,3.15
2023-02-22T00:11:30.867Z,4.30
2023-02-22T00:13:58.826Z,3.53
2023-02-22T00:16:29.443Z,3.63
2023-02-22T00:18:57.599Z,3.60
2023-02-22T00:21:25.639Z,2.90
2023-02-22T00:23:53.253Z,2.95
2023-02-22T00:26:22.233Z,3.20
2023-02-22T00:28:52.147Z,3.53
2023-02-22T00:31:21.003Z,2.70
2023-02-22T00:33:50.897Z,2.80
2023-02-22T00:36:18.986Z,2.65
2023-02-22T00:38:46.540Z,2.72
2023-02-22T00:41:14.589Z,3.17
2023-02-22T00:43:42.930Z,2.80
2023-02-22T00:46:10.694Z,2.20
2023-02-22T00:48:38.962Z,2.60
2023-02-22T00:51:08.371Z,2.47
2023-02-22T00:53:35.932Z,2.70
2023-02-22T00:56:03.865Z,2.45
2023-02-22T00:58:31.766Z,2.75
2023-02-22T01:01:00.758Z,2.78
2023-02-22T01:03:28.808Z,2.78
2023-02-22T01:05:56.826Z,2.63
2023-02-22T01:08:26.067Z,2.30
2023-02-22T01:10:53.794Z,2.70
2023-02-22T01:13:21.656Z,2.83
2023-02-22T01:15:50.082Z,2.60
2023-02-22T01:18:18.094Z,2.63
2023-02-22T01:20:45.761Z,3.00
2023-02-22T01:23:14.582Z,2.60
2023-02-22T01:25:44.082Z,3.00
2023-02-22T01:28:11.847Z,2.92
2023-02-22T01:30:40.000Z,2.80
2023-02-22T01:33:08.698Z,2.72
2023-02-22T01:35:38.586Z,2.83
2023-02-22T01:38:08.187Z,3.22
2023-02-22T01:40:37.734Z,2.60
2023-02-22T01:43:17.276Z,2.30
2023-02-22T01:45:49.718Z,2.80
2023-02-22T01:48:24.244Z,2.90
2023-02-22T01:50:56.682Z,2.83
2023-02-22T01:53:29.750Z,3.80
2023-02-22T01:55:59.282Z,3.05
2023-02-22T01:58:32.719Z,3.53
2023-02-22T02:01:00.570Z,3.13
2023-02-22T02:03:31.934Z,3.15
2023-02-22T02:06:02.771Z,2.95
2023-02-22T02:08:36.854Z,3.17
2023-02-22T02:11:13.850Z,2.53
2023-02-22T02:13:43.222Z,2.75
2023-02-22T02:16:11.108Z,2.92
2023-02-22T02:18:38.861Z,2.65
2023-02-22T02:21:29.025Z,3.33
2023-02-22T02:24:23.664Z,3.63
2023-02-22T02:27:05.660Z,3.30
2023-02-22T02:30:11.336Z,2.95
2023-02-22T02:32:49.229Z,3.10
2023-02-22T02:35:25.389Z,2.78
2023-02-22T02:38:02.668Z,2.90
2023-02-22T02:40:36.846Z,2.70
2023-02-22T02:43:13.529Z,2.95
2023-02-22T02:45:47.505Z,2.90
2023-02-22T02:48:21.369Z,2.63
2023-02-22T02:50:50.578Z,2.70
2023-02-22T02:53:22.129Z,3.13
2023-02-22T02:55:49.719Z,2.70
2023-02-22T02:58:19.673Z,3.03
2023-02-22T03:00:50.196Z,2.75
2023-02-22T03:03:43.883Z,2.88
2023-02-22T03:06:36.923Z,2.53
2023-02-22T03:09:13.014Z,2.47
2023-02-22T03:11:54.798Z,2.28
2023-02-22T03:14:29.712Z,2.60
2023-02-22T03:17:04.821Z,2.45
2023-02-22T03:19:38.382Z,2.85
2023-02-22T03:22:11.945Z,2.80
2023-02-22T03:24:47.186Z,2.90
2023-02-22T03:27:21.934Z,2.80
2023-02-22T03:29:53.840Z,2.63
2023-02-22T03:32:27.596Z,3.35
2023-02-22T03:35:00.136Z,3.70
2023-02-22T03:37:32.071Z,4.70
2023-02-22T03:40:01.201Z,4.35
2023-02-22T03:42:33.892Z,4.07
2023-02-22T03:45:04.159Z,4.15
2023-02-22T03:47:39.596Z,3.25
2023-02-22T03:50:12.626Z,2.90
2023-02-22T03:52:40.574Z,3.55
2023-02-22T03:55:08.759Z,3.70
2023-02-22T03:57:40.153Z,4.13
2023-02-22T04:02:37.215Z,2.78
2023-02-22T04:05:05.396Z,2.55
2023-02-22T04:07:34.788Z,3.33
2023-02-22T04:10:02.493Z,3.20
2023-02-22T04:12:30.451Z,3.00
2023-02-22T04:15:03.120Z,3.17
2023-02-22T04:17:30.988Z,3.55
2023-02-22T04:19:58.688Z,2.95
2023-02-22T04:22:26.632Z,3.47
2023-02-22T04:24:55.752Z,3.55
2023-02-22T04:27:23.467Z,3.40
2023-02-22T04:29:51.375Z,3.50
2023-02-22T04:32:19.145Z,4.15
2023-02-22T04:34:47.005Z,3.22
2023-02-22T04:37:14.828Z,4.05
2023-02-22T04:39:42.658Z,4.10
2023-02-22T04:42:11.799Z,3.92
2023-02-22T04:44:41.027Z,3.97
2023-02-22T04:47:08.614Z,4.50
2023-02-22T04:49:38.731Z,4.05
2023-02-22T04:52:06.815Z,3.30
2023-02-22T04:54:34.390Z,4.18
2023-02-22T04:57:02.264Z,4.47
2023-02-22T04:59:31.864Z,3.72
2023-02-22T05:01:59.799Z,3.22
2023-02-22T05:04:27.780Z,3.13
2023-02-22T05:06:55.521Z,4.25
2023-02-22T05:09:23.112Z,3.65
2023-02-22T05:11:50.808Z,3.78
2023-02-22T05:14:18.668Z,3.15
2023-02-22T05:16:50.324Z,3.83
2023-02-22T05:19:18.056Z,3.30
2023-02-22T05:21:45.747Z,3.60
2023-02-22T05:24:13.509Z,4.40
2023-02-22T05:26:42.694Z,4.07
2023-02-22T05:29:11.908Z,3.70
2023-02-22T05:31:39.810Z,3.35
2023-02-22T05:34:09.409Z,3.33
2023-02-22T05:36:37.261Z,4.20
2023-02-22T05:39:04.893Z,3.67
2023-02-22T05:41:32.866Z,3.63
2023-02-22T05:44:00.655Z,4.13
2023-02-22T05:46:28.224Z,8.48
2023-02-22T05:48:55.877Z,6.95
2023-02-22T05:51:25.144Z,6.60
2023-02-22T05:53:53.127Z,5.93
2023-02-22T05:56:28.128Z,5.45
2023-02-22T05:58:56.035Z,6.05
2023-02-22T06:01:24.494Z,6.45
2023-02-22T06:03:53.374Z,4.18
2023-02-22T06:06:22.444Z,4.22
2023-02-22T06:08:51.739Z,3.33
2023-02-22T06:11:19.810Z,3.90
2023-02-22T06:13:51.769Z,2.85
2023-02-22T06:18:47.631Z,2.60
2023-02-22T06:21:15.288Z,3.50
2023-02-22T06:23:44.058Z,3.97
2023-02-22T06:26:16.266Z,4.28
2023-02-22T06:28:45.115Z,3.35
2023-02-22T06:31:14.467Z,3.67
2023-02-22T06:33:42.154Z,4.03
2023-02-22T06:36:10.348Z,3.95
2023-02-22T06:38:37.949Z,4.03
2023-02-22T06:41:05.754Z,3.53
2023-02-22T06:43:36.820Z,3.22
2023-02-22T06:46:04.598Z,2.95
2023-02-22T06:48:33.013Z,4.10
2023-02-22T06:51:00.811Z,3.47
2023-02-22T06:53:28.918Z,3.70
2023-02-22T06:55:56.981Z,3.50
2023-02-22T06:58:25.359Z,3.83
2023-02-22T07:00:54.884Z,3.10
2023-02-22T07:03:22.508Z,4.07
2023-02-22T07:05:51.113Z,3.33
2023-02-22T07:08:21.507Z,6.10
2023-02-22T07:10:49.059Z,4.50
2023-02-22T07:13:23.029Z,3.50
2023-02-22T07:15:50.596Z,4.25
2023-02-22T07:18:19.919Z,4.15
2023-02-22T07:20:51.264Z,4.43
2023-02-22T07:23:19.322Z,9.63
2023-02-22T07:25:47.097Z,3.50
2023-02-22T07:28:15.044Z,3.28
2023-02-22T07:30:42.977Z,20.90
2023-02-22T07:33:13.383Z,3.28
2023-02-22T07:35:47.167Z,4.17
2023-02-22T07:38:16.833Z,4.10
2023-02-22T07:40:45.646Z,3.15
2023-02-22T07:43:17.596Z,3.35
2023-02-22T07:45:46.645Z,3.67
2023-02-22T07:48:17.588Z,3.28
2023-02-22T07:50:47.377Z,3.03
2023-02-22T07:53:16.682Z,3.63
2023-02-22T07:55:44.372Z,3.25
2023-02-22T07:58:14.602Z,3.83
2023-02-22T08:00:42.568Z,2.80
2023-02-22T08:03:12.046Z,2.83
2023-02-22T08:05:42.161Z,2.85
2023-02-22T08:08:11.531Z,4.25
2023-02-22T08:10:39.128Z,3.85
2023-02-22T08:13:07.456Z,2.97
2023-02-22T08:18:08.701Z,3.15
2023-02-22T08:20:37.355Z,3.97
2023-02-22T08:23:05.728Z,2.80
2023-02-22T08:25:35.463Z,3.17
2023-02-22T08:28:05.399Z,3.17
2023-02-22T08:30:35.108Z,4.13
2023-02-22T08:33:05.204Z,2.70
2023-02-22T08:35:33.700Z,2.63
2023-02-22T08:38:03.780Z,2.70
2023-02-22T08:43:02.949Z,3.90
2023-02-22T08:45:31.236Z,2.42
2023-02-22T08:47:59.550Z,2.45
2023-02-22T08:50:29.657Z,2.30
2023-02-22T08:53:00.511Z,2.53
2023-02-22T08:55:37.066Z,2.78
2023-02-22T08:58:06.346Z,1.92
2023-02-22T09:00:34.095Z,2.10
2023-02-22T09:03:02.929Z,2.42
2023-02-22T09:05:31.672Z,2.17
2023-02-22T09:08:00.505Z,2.40
2023-02-22T09:10:30.669Z,2.40
2023-02-22T09:13:02.013Z,2.42
2023-02-22T09:15:30.801Z,2.40
2023-02-22T09:17:58.886Z,1.30
2023-02-22T09:20:28.797Z,3.40
2023-02-22T09:22:57.435Z,3.17
2023-02-22T09:25:26.835Z,1.90
2023-02-22T09:27:56.170Z,1.58
2023-02-22T09:30:28.698Z,1.83
2023-02-22T09:32:59.406Z,3.33
2023-02-22T09:35:27.854Z,2.85
2023-02-22T09:37:57.032Z,2.60
2023-02-22T09:40:27.416Z,1.85
2023-02-22T09:43:07.280Z,2.45
2023-02-22T09:45:44.312Z,1.70
2023-02-22T09:48:22.150Z,4.18
2023-02-22T09:50:52.987Z,3.83
2023-02-22T09:53:26.457Z,2.38
2023-02-22T09:55:55.864Z,2.28
2023-02-22T09:58:28.627Z,2.83
2023-02-22T10:01:11.358Z,2.50
2023-02-22T10:03:47.739Z,1.50
2023-02-22T10:06:20.202Z,1.70
2023-02-22T10:08:49.342Z,1.98
2023-02-22T10:11:30.171Z,1.48
2023-02-22T10:14:09.492Z,1.42
2023-02-22T10:16:42.785Z,2.40
2023-02-22T10:19:25.067Z,2.42
2023-02-22T10:22:28.312Z,11.15
2023-02-22T10:25:00.119Z,2.95
2023-02-22T10:27:33.188Z,1.40
2023-02-22T10:30:22.170Z,3.45
2023-02-22T10:32:59.024Z,1.52
2023-02-22T10:35:29.115Z,1.38
2023-02-22T10:38:02.449Z,1.90
2023-02-22T10:40:31.661Z,1.30
2023-02-22T10:43:03.006Z,0.88
2023-02-22T10:45:32.752Z,1.48
2023-02-22T10:48:06.389Z,1.70
2023-02-22T10:50:37.095Z,1.80
2023-02-22T10:53:07.029Z,1.90
2023-02-22T10:55:35.607Z,2.55
2023-02-22T10:58:08.506Z,2.00
2023-02-22T11:00:39.640Z,3.00
2023-02-22T11:03:18.176Z,1.52
2023-02-22T11:05:46.114Z,1.35
2023-02-22T11:08:24.466Z,2.05
2023-02-22T11:10:56.064Z,1.73
2023-02-22T11:13:26.949Z,1.52
2023-02-22T11:15:55.759Z,2.25
2023-02-22T11:18:29.586Z,1.92
2023-02-22T11:21:03.738Z,1.65
2023-02-22T11:23:32.396Z,2.15
2023-02-22T11:26:08.249Z,1.70
2023-02-22T11:28:37.030Z,1.27
2023-02-22T11:31:16.446Z,2.20
2023-02-22T11:33:53.440Z,2.90
2023-02-22T11:36:35.706Z,2.15
2023-02-22T11:39:04.868Z,3.35
2023-02-22T11:41:34.196Z,2.55
2023-02-22T11:44:23.098Z,3.40
2023-02-22T11:46:52.053Z,4.72
2023-02-22T11:49:24.379Z,2.10
2023-02-22T11:52:05.446Z,2.50
2023-02-22T11:54:46.793Z,2.35
2023-02-22T11:57:36.224Z,2.58
2023-02-22T12:00:15.463Z,1.45
2023-02-22T12:03:01.553Z,1.45
2023-02-22T12:05:44.776Z,0.90
2023-02-22T12:08:25.795Z,2.85
2023-02-22T12:11:04.650Z,1.92
2023-02-22T12:13:47.838Z,3.40
2023-02-22T12:16:24.185Z,3.00
2023-02-22T12:19:09.885Z,6.03
2023-02-22T12:21:43.976Z,3.33
2023-02-22T12:24:16.451Z,3.55
2023-02-22T12:26:48.762Z,3.42
2023-02-22T12:29:24.883Z,4.60
2023-02-22T12:31:57.875Z,4.45
2023-02-22T12:34:30.721Z,4.28
2023-02-22T12:37:10.780Z,3.55
2023-02-22T12:39:59.145Z,3.20
2023-02-22T12:42:34.339Z,5.90
2023-02-22T12:45:11.681Z,4.78
2023-02-22T12:47:47.832Z,49.03
2023-02-22T12:50:21.939Z,7.43
2023-02-22T12:52:56.588Z,9.40
2023-02-22T12:55:27.059Z,7.80
2023-02-22T12:57:59.722Z,8.95
2023-02-22T13:00:43.112Z,7.22
2023-02-22T13:03:28.025Z,2.50
2023-02-22T13:06:07.668Z,4.63
2023-02-22T13:08:41.900Z,13.75
2023-02-22T13:11:21.260Z,2.40
2023-02-22T13:14:04.092Z,2.30
2023-02-22T13:19:18.197Z,5.50
2023-02-22T13:21:50.342Z,2.45
2023-02-22T13:24:26.351Z,2.30
2023-02-22T13:26:59.466Z,2.67
2023-02-22T13:29:31.577Z,2.58
2023-02-22T13:32:13.835Z,7.72
2023-02-22T13:37:41.092Z,3.60
2023-02-22T13:40:30.933Z,5.38
2023-02-22T13:43:15.157Z,10.13
2023-02-22T13:46:11.209Z,12.35
2023-02-22T13:49:15.238Z,10.35
2023-02-22T13:51:48.002Z,1.88
2023-02-22T13:54:21.575Z,1.60
2023-02-22T13:56:52.566Z,2.00
2023-02-22T13:59:35.101Z,6.93
2023-02-22T14:02:05.927Z,3.33
2023-02-22T14:04:39.141Z,4.30
2023-02-22T14:07:55.299Z,3.30
2023-02-22T14:10:47.595Z,6.10
2023-02-22T14:13:18.210Z,5.13
2023-02-22T14:16:19.291Z,5.00
2023-02-22T14:18:51.069Z,4.10
2023-02-22T14:21:20.666Z,5.93
2023-02-22T14:26:24.626Z,4.40
2023-02-22T14:28:59.545Z,5.40
2023-02-22T14:31:36.532Z,7.57
2023-02-22T14:34:08.931Z,9.65
2023-02-22T14:36:49.796Z,9.07
2023-02-22T14:39:27.467Z,4.60
2023-02-22T14:41:59.641Z,5.07
2023-02-22T14:44:33.666Z,4.28
2023-02-22T14:47:05.405Z,3.95
2023-02-22T14:49:39.446Z,3.53
2023-02-22T14:52:18.442Z,4.70
2023-02-22T14:55:02.376Z,5.03
2023-02-22T14:57:40.269Z,5.22
2023-02-22T15:00:15.339Z,4.88
2023-02-22T15:02:43.275Z,3.95
2023-02-22T15:05:14.149Z,7.22
2023-02-22T15:07:53.311Z,4.75
2023-02-22T15:10:25.404Z,3.45
2023-02-22T15:12:56.185Z,4.68
2023-02-22T15:15:25.648Z,3.40
2023-02-22T15:17:56.207Z,4.07
2023-02-22T15:20:25.735Z,4.22
2023-02-22T15:22:59.529Z,4.30
2023-02-22T15:25:29.783Z,4.85
2023-02-22T15:28:03.652Z,4.65
2023-02-22T15:30:33.511Z,5.78
2023-02-22T15:33:13.542Z,6.32
2023-02-22T15:35:42.170Z,9.13
2023-02-22T15:38:20.518Z,4.72
2023-02-22T15:40:58.936Z,3.15
2023-02-22T15:43:27.161Z,3.58
2023-02-22T15:45:57.599Z,3.60
2023-02-22T15:48:26.377Z,3.72
2023-02-22T15:51:04.744Z,36.20
2023-02-22T15:53:40.216Z,39.97
2023-02-22T15:56:13.590Z,19.27
2023-02-22T15:58:44.165Z,22.60
2023-02-22T16:01:15.597Z,19.67
2023-02-22T16:06:15.414Z,4.95
2023-02-22T16:08:54.814Z,4.50
2023-02-22T16:11:30.829Z,6.63
2023-02-22T16:14:01.826Z,4.20
2023-02-22T16:16:33.148Z,3.88
2023-02-22T16:19:28.162Z,4.20
2023-02-22T16:21:58.093Z,4.55
2023-02-22T16:24:26.505Z,4.00
2023-02-22T16:27:16.993Z,4.63
2023-02-22T16:30:00.276Z,6.57
2023-02-22T16:32:29.599Z,4.85
2023-02-22T16:34:57.405Z,5.50
2023-02-22T16:37:25.326Z,5.03
2023-02-22T16:39:53.454Z,5.50
2023-02-22T16:42:21.161Z,7.22
2023-02-22T16:44:48.723Z,5.88
2023-02-22T16:47:16.985Z,6.20
2023-02-22T16:49:49.452Z,6.40
2023-02-22T16:52:17.237Z,6.60
2023-02-22T16:54:46.102Z,6.13
2023-02-22T16:57:18.818Z,6.03
2023-02-22T16:59:47.361Z,4.80
2023-02-22T17:02:15.994Z,5.70
2023-02-22T17:04:46.612Z,6.32
2023-02-22T17:07:14.516Z,5.93
2023-02-22T17:09:42.075Z,4.45
2023-02-22T17:12:09.936Z,4.90
2023-02-22T17:14:37.842Z,4.20
2023-02-22T17:17:05.920Z,4.90
2023-02-22T17:19:36.723Z,4.78
2023-02-22T17:22:06.670Z,5.43
2023-02-22T17:24:34.974Z,5.88
2023-02-22T17:27:02.995Z,6.38
2023-02-22T17:29:31.434Z,6.07
2023-02-22T17:32:00.061Z,7.57
2023-02-22T17:34:27.634Z,19.42
2023-02-22T17:36:56.100Z,10.02
2023-02-22T17:39:25.299Z,7.57
2023-02-22T17:41:54.881Z,7.75
2023-02-22T17:44:22.676Z,8.57
2023-02-22T17:46:52.211Z,8.85
2023-02-22T17:49:20.005Z,9.48
2023-02-22T17:51:48.078Z,9.52
2023-02-22T17:54:17.367Z,11.70
2023-02-22T17:56:46.376Z,9.70
2023-02-22T17:59:14.174Z,9.52
2023-02-22T18:01:42.859Z,9.93
2023-02-22T18:04:11.899Z,9.20
2023-02-22T18:06:40.459Z,9.25
2023-02-22T18:09:08.274Z,9.05
2023-02-22T18:11:38.365Z,9.27
2023-02-22T18:14:10.108Z,9.70
2023-02-22T18:16:38.487Z,11.57
2023-02-22T18:19:06.394Z,10.98
2023-02-22T18:21:34.352Z,13.20
2023-02-22T18:24:02.762Z,13.80
2023-02-22T18:26:30.602Z,14.65
2023-02-22T18:28:59.586Z,26.55
2023-02-22T18:31:28.773Z,18.63
2023-02-22T18:33:56.863Z,15.65
2023-02-22T18:36:24.926Z,13.05
2023-02-22T18:38:55.020Z,14.13
2023-02-22T18:41:23.950Z,14.43
2023-02-22T18:43:51.961Z,13.50
2023-02-22T18:46:22.258Z,12.85
2023-02-22T18:48:54.815Z,13.10
2023-02-22T18:53:50.629Z,12.07
2023-02-22T18:56:19.730Z,13.10
2023-02-22T18:58:47.941Z,11.65
2023-02-22T19:01:17.994Z,11.57
2023-02-22T19:03:46.740Z,37.15
2023-02-22T19:06:17.919Z,35.55
2023-02-22T19:08:46.326Z,44.47
2023-02-22T19:11:17.057Z,28.92
2023-02-22T19:13:45.861Z,27.38
2023-02-22T19:16:20.639Z,35.15
2023-02-22T19:18:49.342Z,36.60
2023-02-22T19:21:19.987Z,30.73
2023-02-22T19:23:47.759Z,23.77
2023-02-22T19:26:18.150Z,17.08
2023-02-22T19:28:47.333Z,16.52
2023-02-22T19:31:17.938Z,15.23
2023-02-22T19:33:47.836Z,15.02
2023-02-22T19:36:20.358Z,14.63
2023-02-22T19:38:48.510Z,23.20
2023-02-22T19:41:18.368Z,22.35
2023-02-22T19:43:47.380Z,17.35
2023-02-22T19:46:15.690Z,15.98
2023-02-22T19:48:43.303Z,18.02
2023-02-22T19:51:13.029Z,20.73
2023-02-22T19:53:43.932Z,32.45
2023-02-22T19:56:13.265Z,30.83
2023-02-22T19:58:41.992Z,28.00
2023-02-22T20:01:13.541Z,24.58
2023-02-22T20:03:41.922Z,24.27
2023-02-22T20:06:10.787Z,21.50
2023-02-22T20:08:40.590Z,27.55
2023-02-22T20:11:12.446Z,25.35
2023-02-22T20:13:41.099Z,20.70
2023-02-22T20:16:09.083Z,21.98
2023-02-22T20:18:37.141Z,23.83
2023-02-22T20:21:08.685Z,25.98
2023-02-22T20:23:37.299Z,23.50
2023-02-22T20:26:05.274Z,21.10
2023-02-22T20:28:34.510Z,22.15
2023-02-22T20:31:02.561Z,34.08
2023-02-22T20:33:30.500Z,21.35
2023-02-22T20:35:58.812Z,33.30
2023-02-22T20:38:26.471Z,27.60
2023-02-22T20:40:55.321Z,30.70
2023-02-22T20:43:23.022Z,20.63
2023-02-22T20:45:53.247Z,25.92
2023-02-22T20:48:21.608Z,14.90
2023-02-22T20:50:49.602Z,16.08
2023-02-22T20:53:17.575Z,20.23
2023-02-22T20:55:49.069Z,22.90
2023-02-22T20:58:16.786Z,24.92
2023-02-22T21:00:45.032Z,18.42
2023-02-22T21:03:18.916Z,23.17
2023-02-22T21:05:46.998Z,31.17
2023-02-22T21:08:14.932Z,35.92
2023-02-22T21:10:43.625Z,30.15
2023-02-22T21:13:11.903Z,14.90
2023-02-22T21:15:41.113Z,13.18
2023-02-22T21:18:09.324Z,10.65
2023-02-22T21:20:39.233Z,11.15
2023-02-22T21:23:07.180Z,21.70
2023-02-22T21:25:36.349Z,13.48
2023-02-22T21:28:04.964Z,12.20
2023-02-22T21:30:33.046Z,11.30
2023-02-22T21:33:05.229Z,9.15
2023-02-22T21:35:35.775Z,10.15
2023-02-22T21:38:04.851Z,11.88
2023-02-22T21:40:34.325Z,17.00
2023-02-22T21:43:01.952Z,21.23
2023-02-22T21:45:29.754Z,14.55
2023-02-22T21:47:57.646Z,11.55
2023-02-22T21:50:25.407Z,10.20
2023-02-22T21:52:52.964Z,19.80
2023-02-22T21:55:22.762Z,7.95
2023-02-22T21:57:50.677Z,11.30
2023-02-22T22:00:20.208Z,12.30
2023-02-22T22:02:48.838Z,17.00
2023-02-22T22:05:17.174Z,16.60
2023-02-22T22:07:45.651Z,12.38
2023-02-22T22:10:13.430Z,9.77
2023-02-22T22:12:42.616Z,8.75
2023-02-22T22:15:13.895Z,6.70
2023-02-22T22:17:41.980Z,6.35
2023-02-22T22:20:10.426Z,5.40
2023-02-22T22:22:38.858Z,6.18
2023-02-22T22:25:07.597Z,8.30
2023-02-22T22:27:35.281Z,8.40
2023-02-22T22:30:07.697Z,8.05
2023-02-22T22:32:36.421Z,8.32
2023-02-22T22:35:06.603Z,5.60
2023-02-22T22:37:35.850Z,4.75
2023-02-22T22:40:05.041Z,6.15
2023-02-22T22:42:32.770Z,5.15
2023-02-22T22:45:00.551Z,8.15
2023-02-22T22:47:29.537Z,16.35
2023-02-22T22:49:57.145Z,23.30
2023-02-22T22:52:25.035Z,27.10
2023-02-22T22:54:54.321Z,30.70
2023-02-22T22:57:22.536Z,22.92
2023-02-22T22:59:50.407Z,18.75
2023-02-22T23:02:18.043Z,16.58
2023-02-22T23:04:49.715Z,16.38
2023-02-22T23:09:45.237Z,7.55
2023-02-22T23:12:12.918Z,6.82
2023-02-22T23:14:43.594Z,7.10
2023-02-22T23:17:13.039Z,6.88
2023-02-22T23:19:42.268Z,7.38
2023-02-22T23:22:12.353Z,7.32
2023-02-22T23:24:41.153Z,6.50
2023-02-22T23:27:09.238Z,8.00
2023-02-22T23:29:38.718Z,7.18
2023-02-22T23:32:07.082Z,7.28
2023-02-22T23:34:36.012Z,8.02
2023-02-22T23:37:04.494Z,7.43
2023-02-22T23:39:33.875Z,7.22
2023-02-22T23:42:01.620Z,6.60
2023-02-22T23:44:30.075Z,7.18
2023-02-22T23:46:57.706Z,6.68
2023-02-22T23:49:26.571Z,6.35
2023-02-22T23:51:54.660Z,7.30
2023-02-22T23:54:23.010Z,7.00
2023-02-22T23:56:52.640Z,6.43
2023-02-22T23:59:20.334Z,6.45
